EGDX - St Athan Royal AFB
Distance from station: E 5mi, 14km
Updated: 02/21/2018 8:50am
Mostly Cloudy
Mostly Cloudy
 Wind from ENE
Wind: ENE 7 mph , 11 km/h
Temperature: 45°F , 7°C
Wind Chill: 41°F , 5°C
Dew Point: 34°F , 1°C
Humidity: 66%
Barometer: 30.27 inHg , 1025 hPa
Clouds: Mostly Cloudy
Visibility: 6 miles , 10 km
Cloud details: Mostly Cloudy 3700 ft
2018/02/21 16:50 EGDX 211650Z 07006KT 9999 BKN037 07/01 Q1025 BLU